Main page
METAR-TAF:

METAR-TAF

Airports :

Tiree Airport

Tiree, Scotland

latitude: 56-30N, longitude: 006-53W, elevation: 12 m

Current weather observation

The report was made 23 minutes ago, at 13:20 UTC
Wind 10 kt from the South
Temperature 16°C
Humidity 72%
Pressure 1024 hPa
Visibility 10 km or more
no clouds below 1500 m and no cumulonimbus

METAR: EGPU 241320Z 18010KT CAVOK 16/11 Q1024

Time: 14:43 (13:43 UTC)

Forecast

The report was made 2 hours and 40 minutes ago, at 11:03 UTC
Forecast valid from 24 at 12 UTC to 24 at 18 UTC
Wind 8 kt from the South
Visibility 10 km or more
no clouds below 1500 m and no cumulonimbus
Temporary
from 24 at 17 UTC to 24 at 18 UTC
Visibility: 6000 m

TAF: EGPU 241103Z 2412/2418 17008KT CAVOK TEMPO 2417/2418 6000

Weather observations and forecasts of more than 4000 airports (METAR and TAF reports).

The available stations are represented by yellow and red dots on the map.

Hover mouse over dot to see the name of the station.

Then click to see weather observations and forecasts.

To change the map : click on the green buttons with a black cross to zoom in, on the green button with a dash to zoom out, or on the green arrows for adjacent maps.


METAR-TAF: